createdAt,value
2019-03-25T00:00:51.990Z,2.64
2019-03-25T00:03:26.128Z,2.65
2019-03-25T00:05:59.751Z,2.68
2019-03-25T00:08:32.587Z,2.62
2019-03-25T00:11:06.440Z,2.66
2019-03-25T00:13:40.780Z,2.61
2019-03-25T00:16:14.766Z,2.80
2019-03-25T00:18:48.765Z,3.03
2019-03-25T00:21:23.076Z,3.18
2019-03-25T00:23:57.534Z,3.23
2019-03-25T00:26:31.278Z,3.30
2019-03-25T00:29:05.548Z,3.37
2019-03-25T00:31:39.346Z,3.41
2019-03-25T00:34:12.853Z,3.45
2019-03-25T00:36:46.857Z,3.50
2019-03-25T00:39:22.795Z,3.52
2019-03-25T00:41:56.689Z,3.55
2019-03-25T00:44:30.389Z,3.59
2019-03-25T00:47:04.223Z,3.56
2019-03-25T00:49:37.756Z,3.52
2019-03-25T00:52:11.381Z,3.57
2019-03-25T00:54:50.042Z,3.54
2019-03-25T00:57:21.090Z,3.52
2019-03-25T00:59:55.472Z,3.60
2019-03-25T01:02:28.605Z,3.57
2019-03-25T01:05:02.617Z,3.58
2019-03-25T01:07:37.339Z,3.56
2019-03-25T01:10:11.066Z,3.59
2019-03-25T01:12:44.648Z,3.59
2019-03-25T01:15:18.629Z,3.55
2019-03-25T01:17:54.072Z,3.56
2019-03-25T01:20:27.846Z,3.57
2019-03-25T01:23:01.809Z,3.60
2019-03-25T01:25:35.338Z,3.56
2019-03-25T01:28:09.132Z,3.55
2019-03-25T01:30:42.383Z,3.58
2019-03-25T01:33:16.268Z,3.55
2019-03-25T01:35:50.057Z,3.63
2019-03-25T01:38:23.952Z,3.65
2019-03-25T01:40:58.156Z,3.67
2019-03-25T01:43:32.252Z,3.74
2019-03-25T01:46:05.398Z,3.74
2019-03-25T01:48:39.581Z,3.71
2019-03-25T01:51:13.905Z,3.79
2019-03-25T01:53:47.178Z,3.83
2019-03-25T01:56:21.228Z,3.86
2019-03-25T01:58:54.885Z,3.88
2019-03-25T02:01:28.635Z,3.86
2019-03-25T02:04:02.575Z,3.81
2019-03-25T02:06:37.055Z,3.80
2019-03-25T02:09:11.086Z,3.76
2019-03-25T02:11:45.349Z,3.80
2019-03-25T02:14:19.406Z,3.79
2019-03-25T02:16:54.631Z,3.88
2019-03-25T02:19:28.251Z,3.87
2019-03-25T02:22:01.853Z,3.88
2019-03-25T02:24:35.868Z,3.90
2019-03-25T02:27:09.348Z,3.88
2019-03-25T02:29:43.578Z,3.87
2019-03-25T02:32:17.374Z,3.93
2019-03-25T02:34:50.985Z,3.90
2019-03-25T02:37:25.195Z,3.97
2019-03-25T02:39:59.310Z,3.90
2019-03-25T02:42:33.358Z,3.89
2019-03-25T02:45:07.861Z,3.93
2019-03-25T02:47:41.761Z,3.96
2019-03-25T02:50:15.839Z,4.04
2019-03-25T02:52:49.102Z,4.04
2019-03-25T02:55:23.261Z,4.04
2019-03-25T02:57:56.923Z,3.84
2019-03-25T03:00:34.686Z,3.86
2019-03-25T03:03:08.710Z,3.90
2019-03-25T03:05:42.373Z,3.88
2019-03-25T03:08:15.471Z,3.93
2019-03-25T03:10:49.382Z,3.90
2019-03-25T03:13:22.186Z,4.12
2019-03-25T03:15:56.297Z,4.13
2019-03-25T03:18:30.004Z,4.02
2019-03-25T03:21:03.640Z,3.91
2019-03-25T03:23:37.312Z,3.79
2019-03-25T03:26:10.793Z,3.76
2019-03-25T23:54:40.018Z,3.69
2019-03-25T23:57:13.595Z,3.73
2019-03-25T23:59:48.043Z,3.71
